createdAt,value
2018-04-08T00:02:19.022Z,5.10
2018-04-08T00:04:48.035Z,5.70
2018-04-08T00:07:15.984Z,5.33
2018-04-08T00:09:43.968Z,5.60
2018-04-08T00:12:11.950Z,4.70
2018-04-08T00:14:39.955Z,5.70
2018-04-08T00:17:07.899Z,5.73
2018-04-08T00:19:35.916Z,6.60
2018-04-08T00:22:03.911Z,5.23
2018-04-08T00:24:31.839Z,5.90
2018-04-08T00:26:59.835Z,6.73
2018-04-08T00:29:27.804Z,5.78
2018-04-08T00:31:55.786Z,5.73
2018-04-08T00:34:23.772Z,6.18
2018-04-08T00:36:51.790Z,6.43
2018-04-08T00:39:19.762Z,6.10
2018-04-08T00:41:47.719Z,5.50
2018-04-08T00:44:15.733Z,5.85
2018-04-08T00:46:43.679Z,5.80
2018-04-08T00:49:11.676Z,5.67
2018-04-08T00:51:39.627Z,4.90
2018-04-08T00:54:13.754Z,5.90
2018-04-08T00:56:41.735Z,6.37
2018-04-08T00:59:09.764Z,6.10
2018-04-08T01:01:37.755Z,6.50
2018-04-08T01:04:05.686Z,6.30
2018-04-08T01:06:33.639Z,5.57
2018-04-08T01:09:01.623Z,5.60
2018-04-08T01:11:29.599Z,6.72
2018-04-08T01:13:57.542Z,6.70
2018-04-08T01:16:25.526Z,6.60
2018-04-08T01:18:57.382Z,5.45
2018-04-08T01:21:25.339Z,6.62
2018-04-08T01:23:53.323Z,6.57
2018-04-08T01:26:21.307Z,7.45
2018-04-08T01:28:49.654Z,6.90
2018-04-08T01:31:17.680Z,6.30
2018-04-08T01:33:45.664Z,6.90
2018-04-08T01:36:13.638Z,6.53
2018-04-08T01:38:41.598Z,6.10
2018-04-08T01:41:09.599Z,6.18
2018-04-08T01:43:37.575Z,6.00
2018-04-08T01:46:05.595Z,5.80
2018-04-08T01:48:33.571Z,6.53
2018-04-08T01:51:01.538Z,5.75
2018-04-08T01:53:29.515Z,5.15
2018-04-08T01:55:57.491Z,5.32
2018-04-08T01:58:25.435Z,6.00
2018-04-08T02:00:53.445Z,5.95
2018-04-08T02:03:21.415Z,5.80
2018-04-08T02:05:49.411Z,5.60
2018-04-08T02:08:17.354Z,5.05
2018-04-08T02:10:45.315Z,5.90
2018-04-08T02:13:13.315Z,5.65
2018-04-08T02:15:41.272Z,6.53
2018-04-08T02:18:09.256Z,5.22
2018-04-08T02:20:37.247Z,5.40
2018-04-08T02:23:05.219Z,5.72
2018-04-08T02:25:33.161Z,6.15
2018-04-08T02:28:01.163Z,5.97
2018-04-08T02:30:29.159Z,6.53
2018-04-08T02:32:57.117Z,6.37
2018-04-08T02:35:25.123Z,6.00
2018-04-08T02:37:53.088Z,5.50
2018-04-08T02:40:21.067Z,5.60
2018-04-08T02:42:49.032Z,6.28
2018-04-08T02:45:18.069Z,5.70
2018-04-08T02:47:46.027Z,6.37
2018-04-08T02:50:13.979Z,5.18
2018-04-08T02:52:41.984Z,5.97
2018-04-08T02:55:09.944Z,5.85
2018-04-08T02:57:37.944Z,6.87
2018-04-08T03:00:05.909Z,6.43
2018-04-08T03:02:33.872Z,6.05
2018-04-08T03:05:01.819Z,5.95
2018-04-08T03:07:29.784Z,5.75
2018-04-08T03:09:57.747Z,6.85
2018-04-08T03:12:25.723Z,6.43
2018-04-08T03:14:53.725Z,6.35
2018-04-08T03:17:21.695Z,7.00
2018-04-08T03:19:49.672Z,6.28
2018-04-08T03:22:17.657Z,5.45
2018-04-08T03:24:45.665Z,6.50
2018-04-08T03:27:14.673Z,6.20
2018-04-08T03:29:42.630Z,7.35
2018-04-08T03:32:10.574Z,7.40
2018-04-08T03:34:38.522Z,7.80
2018-04-08T03:37:06.458Z,6.18
2018-04-08T03:39:34.473Z,7.47
2018-04-08T03:42:03.515Z,6.47
2018-04-08T03:44:31.518Z,6.70
2018-04-08T03:46:59.484Z,6.70
2018-04-08T03:49:27.458Z,7.80
2018-04-08T03:51:55.466Z,7.60
2018-04-08T03:54:23.450Z,6.70
2018-04-08T03:56:51.406Z,6.70
2018-04-08T03:59:19.424Z,6.85
2018-04-08T04:01:47.399Z,6.82
2018-04-08T04:04:15.375Z,6.47
2018-04-08T04:06:43.351Z,6.62
2018-04-08T04:09:11.344Z,6.10
2018-04-08T04:11:39.360Z,7.05
2018-04-08T04:14:07.359Z,6.18
2018-04-08T04:16:35.318Z,6.72
2018-04-08T04:19:09.390Z,6.78
2018-04-08T04:21:43.523Z,6.22
2018-04-08T04:24:17.505Z,6.82
2018-04-08T04:26:45.473Z,7.30
2018-04-08T04:29:13.436Z,6.32
2018-04-08T04:31:41.422Z,6.43
2018-04-08T04:34:09.417Z,5.68
2018-04-08T04:36:37.403Z,5.93
2018-04-08T04:39:05.383Z,6.32
2018-04-08T04:41:33.367Z,5.82
2018-04-08T04:44:01.304Z,6.93
2018-04-08T04:46:29.266Z,6.37
2018-04-08T04:48:57.262Z,7.50
2018-04-08T04:51:25.219Z,7.62
2018-04-08T04:53:53.177Z,6.68
2018-04-08T04:56:21.151Z,7.00
2018-04-08T04:58:49.116Z,6.18
2018-04-08T05:01:17.115Z,6.50
2018-04-08T05:03:45.120Z,5.93
2018-04-08T05:06:13.063Z,7.25
2018-04-08T05:08:41.063Z,6.57
2018-04-08T05:11:09.047Z,6.72
2018-04-08T05:13:37.031Z,6.35
2018-04-08T05:16:04.999Z,6.47
2018-04-08T05:18:32.999Z,6.12
2018-04-08T05:21:02.255Z,6.12
2018-04-08T05:23:30.268Z,6.45
2018-04-08T05:25:58.260Z,5.78
2018-04-08T05:28:26.214Z,7.25
2018-04-08T05:30:54.187Z,5.95
2018-04-08T05:33:22.164Z,7.20
2018-04-08T05:35:50.179Z,6.62
2018-04-08T05:38:18.151Z,6.45
2018-04-08T05:40:46.142Z,6.40
2018-04-08T05:43:14.099Z,6.53
2018-04-08T05:45:42.059Z,7.10
2018-04-08T05:48:10.043Z,6.30
2018-04-08T05:50:38.031Z,6.57
2018-04-08T05:53:06.004Z,7.00
2018-04-08T05:55:33.987Z,6.25
2018-04-08T05:58:01.929Z,7.03
2018-04-08T06:00:29.906Z,5.60
2018-04-08T06:02:57.851Z,7.10
2018-04-08T06:05:25.774Z,6.40
2018-04-08T06:07:53.730Z,5.23
2018-04-08T06:10:21.714Z,6.03
2018-04-08T06:12:49.743Z,6.30
2018-04-08T06:15:17.699Z,6.13
2018-04-08T06:17:45.698Z,6.55
2018-04-08T06:20:13.747Z,6.80
2018-04-08T06:22:41.731Z,7.03
2018-04-08T06:25:09.764Z,5.37
2018-04-08T06:27:37.730Z,5.90
2018-04-08T06:30:05.671Z,7.03
2018-04-08T06:32:34.762Z,5.73
2018-04-08T06:35:02.753Z,5.60
2018-04-08T06:37:30.719Z,5.77
2018-04-08T06:39:58.709Z,6.17
2018-04-08T06:42:26.678Z,4.80
2018-04-08T06:44:54.652Z,5.40
2018-04-08T06:47:22.660Z,5.47
2018-04-08T06:49:50.655Z,5.90
2018-04-08T06:52:18.579Z,6.00
2018-04-08T06:54:46.551Z,5.80
2018-04-08T06:57:14.512Z,5.70
2018-04-08T06:59:42.583Z,5.33
2018-04-08T07:02:10.605Z,5.20
2018-04-08T07:04:38.611Z,6.10
2018-04-08T07:07:06.547Z,6.40
2018-04-08T07:09:34.527Z,6.70
2018-04-08T07:12:03.494Z,5.27
2018-04-08T07:14:31.461Z,7.30
2018-04-08T07:16:59.417Z,6.00
2018-04-08T07:19:27.359Z,6.00
2018-04-08T07:21:55.290Z,5.40
2018-04-08T07:24:23.275Z,5.37
2018-04-08T07:26:51.248Z,6.07
2018-04-08T07:29:19.248Z,5.80
2018-04-08T07:31:47.249Z,6.70
2018-04-08T07:34:15.232Z,5.90
2018-04-08T07:36:43.192Z,5.97
2018-04-08T07:39:11.175Z,7.37
2018-04-08T07:41:39.168Z,5.87
2018-04-08T07:44:07.101Z,6.57
2018-04-08T07:46:35.070Z,6.77
2018-04-08T07:49:03.035Z,6.40
2018-04-08T07:51:31.011Z,6.50
2018-04-08T07:53:59.066Z,6.20
2018-04-08T07:56:27.004Z,6.47
2018-04-08T07:58:54.946Z,6.43
2018-04-08T08:01:22.930Z,6.13
2018-04-08T08:03:50.936Z,7.20
2018-04-08T08:06:18.895Z,6.90
2018-04-08T08:08:46.858Z,6.83
2018-04-08T08:11:14.848Z,6.13
2018-04-08T08:13:42.785Z,6.50
2018-04-08T08:16:10.947Z,11.03
2018-04-08T08:18:39.177Z,6.40
2018-04-08T08:21:07.406Z,6.83
2018-04-08T08:23:35.672Z,6.77
2018-04-08T08:26:03.932Z,6.40
2018-04-08T08:28:32.188Z,6.97
2018-04-08T08:31:00.451Z,6.60
2018-04-08T08:33:28.691Z,6.40
2018-04-08T08:35:56.918Z,6.40
2018-04-08T08:38:25.210Z,5.83
2018-04-08T08:40:53.502Z,5.90
2018-04-08T08:43:21.771Z,7.47
2018-04-08T08:45:50.062Z,6.83
2018-04-08T08:48:18.012Z,7.73
2018-04-08T08:50:46.000Z,6.30
2018-04-08T08:53:14.305Z,6.63
2018-04-08T08:55:42.660Z,6.70
2018-04-08T08:58:10.895Z,7.27
2018-04-08T09:00:39.176Z,7.73
2018-04-08T09:03:07.450Z,7.53
2018-04-08T09:05:35.675Z,6.70
2018-04-08T09:08:04.753Z,7.67
2018-04-08T09:10:32.715Z,6.37
2018-04-08T09:13:01.008Z,7.30
2018-04-08T09:15:29.207Z,7.97
2018-04-08T09:17:57.490Z,6.47
2018-04-08T09:20:28.675Z,6.33
2018-04-08T09:22:56.934Z,6.37
2018-04-08T09:25:25.202Z,6.63
2018-04-08T09:27:53.463Z,7.13
2018-04-08T09:30:21.739Z,7.70
2018-04-08T09:32:49.997Z,6.83
2018-04-08T09:35:18.261Z,7.67
2018-04-08T09:37:46.535Z,7.80
2018-04-08T09:40:14.783Z,7.50
2018-04-08T09:42:43.019Z,6.13
2018-04-08T09:45:11.320Z,7.53
2018-04-08T09:47:40.625Z,7.37
2018-04-08T09:50:08.867Z,7.73
2018-04-08T09:52:37.163Z,8.00
2018-04-08T09:55:05.450Z,8.40
2018-04-08T09:57:49.603Z,8.10
2018-04-08T10:00:23.835Z,7.57
2018-04-08T10:02:57.087Z,7.10
2018-04-08T10:05:25.184Z,8.90
2018-04-08T10:07:53.428Z,9.50
2018-04-08T10:10:21.704Z,8.20
2018-04-08T10:12:49.927Z,8.10
2018-04-08T10:15:18.212Z,9.17
2018-04-08T10:17:46.447Z,8.17
2018-04-08T10:20:14.734Z,9.40
2018-04-08T10:22:43.031Z,9.70
2018-04-08T10:25:11.298Z,7.73
2018-04-08T10:27:39.580Z,8.40
2018-04-08T10:30:09.845Z,9.50
2018-04-08T10:32:38.155Z,8.13
2018-04-08T10:35:06.443Z,10.13
2018-04-08T10:37:34.738Z,9.93
2018-04-08T10:40:03.019Z,8.50
2018-04-08T10:42:31.288Z,9.07
2018-04-08T10:44:59.574Z,8.20
2018-04-08T10:47:27.896Z,9.13
2018-04-08T10:49:56.155Z,9.50
2018-04-08T10:52:24.443Z,9.60
2018-04-08T10:54:52.790Z,9.57
2018-04-08T10:57:21.055Z,8.30
2018-04-08T10:59:49.346Z,9.67
2018-04-08T11:02:17.599Z,9.00
2018-04-08T11:04:47.068Z,8.43
2018-04-08T11:07:15.293Z,9.53
2018-04-08T11:09:43.600Z,9.87
2018-04-08T11:12:11.911Z,9.47
2018-04-08T11:14:40.238Z,9.87
2018-04-08T11:17:08.544Z,8.10
2018-04-08T11:19:36.815Z,8.27
2018-04-08T11:22:05.133Z,8.80
2018-04-08T11:24:33.524Z,8.93
2018-04-08T11:27:01.823Z,8.60
2018-04-08T11:29:30.078Z,8.10
2018-04-08T11:31:58.309Z,9.27
2018-04-08T11:34:26.574Z,8.77
2018-04-08T11:36:54.828Z,8.20
2018-04-08T11:39:23.043Z,8.47
2018-04-08T11:41:51.323Z,7.90
2018-04-08T11:44:19.556Z,9.10
2018-04-08T11:46:47.786Z,8.80
2018-04-08T11:49:16.074Z,8.30
2018-04-08T11:51:44.279Z,8.40
2018-04-08T11:54:12.477Z,7.73
2018-04-08T11:56:40.747Z,10.30
2018-04-08T11:59:09.002Z,7.63
2018-04-08T12:01:37.279Z,7.77
2018-04-08T12:04:06.598Z,9.40
2018-04-08T12:06:34.551Z,9.00
2018-04-08T12:09:02.799Z,9.90
2018-04-08T12:11:30.779Z,7.70
2018-04-08T12:13:58.963Z,8.00
2018-04-08T12:16:27.209Z,7.77
2018-04-08T12:18:55.480Z,6.23
2018-04-08T12:21:23.675Z,7.33
2018-04-08T12:23:51.917Z,8.00
2018-04-08T12:26:20.197Z,7.17
2018-04-08T12:28:49.311Z,7.53
2018-04-08T12:31:17.322Z,6.60
2018-04-08T12:33:45.585Z,6.20
2018-04-08T12:36:13.867Z,5.87
2018-04-08T12:38:42.102Z,7.23
2018-04-08T12:41:10.351Z,7.07
2018-04-08T12:43:38.607Z,6.83
2018-04-08T12:46:06.843Z,7.03
2018-04-08T12:48:35.109Z,6.70
2018-04-08T12:51:03.374Z,7.10
2018-04-08T12:53:31.622Z,7.50
2018-04-08T12:55:59.863Z,8.00
2018-04-08T12:58:28.079Z,5.93
2018-04-08T13:00:56.307Z,5.73
2018-04-08T13:03:24.571Z,6.00
2018-04-08T13:05:52.811Z,6.60
2018-04-08T13:08:21.090Z,7.20
2018-04-08T13:10:49.355Z,6.13
2018-04-08T13:13:17.619Z,6.10
2018-04-08T13:15:45.910Z,7.17
2018-04-08T13:18:14.179Z,7.03
2018-04-08T13:20:42.439Z,5.90
2018-04-08T13:23:10.716Z,6.00
2018-04-08T13:25:38.999Z,7.10
2018-04-08T13:28:07.274Z,6.70
2018-04-08T13:30:35.502Z,6.77
2018-04-08T13:33:03.694Z,6.47
2018-04-08T13:35:31.943Z,6.77
2018-04-08T13:38:00.203Z,6.50
2018-04-08T13:40:28.494Z,6.50
2018-04-08T13:42:56.768Z,5.80
2018-04-08T13:45:24.691Z,5.43
2018-04-08T13:47:52.858Z,5.67
2018-04-08T13:50:21.110Z,6.23
2018-04-08T13:52:49.371Z,4.80
2018-04-08T13:55:17.656Z,4.70
2018-04-08T13:57:45.895Z,5.17
2018-04-08T14:00:14.133Z,5.00
2018-04-08T14:02:42.108Z,4.43
2018-04-08T14:05:10.280Z,5.30
2018-04-08T14:07:38.198Z,4.60
2018-04-08T14:10:06.171Z,6.57
2018-04-08T14:12:34.159Z,5.70
2018-04-08T14:15:02.122Z,8.80
2018-04-08T14:17:30.083Z,4.90
2018-04-08T14:19:58.098Z,4.60
2018-04-08T14:22:27.179Z,4.90
2018-04-08T14:24:56.164Z,4.87
2018-04-08T14:27:24.147Z,4.73
2018-04-08T14:29:52.095Z,4.93
2018-04-08T14:32:20.054Z,4.20
2018-04-08T14:34:48.024Z,4.43
2018-04-08T14:37:16.007Z,5.53
2018-04-08T14:39:43.954Z,5.70
2018-04-08T14:42:11.957Z,6.13
2018-04-08T14:44:39.932Z,5.47
2018-04-08T14:47:07.944Z,5.03
2018-04-08T14:49:35.915Z,5.00
2018-04-08T14:52:03.903Z,5.83
2018-04-08T14:54:31.894Z,4.10
2018-04-08T14:56:59.852Z,4.40
2018-04-08T14:59:27.806Z,3.93
2018-04-08T15:01:55.818Z,3.87
2018-04-08T15:04:23.755Z,3.70
2018-04-08T15:06:51.709Z,4.27
2018-04-08T15:09:19.614Z,3.60
2018-04-08T15:11:47.547Z,4.53
2018-04-08T15:14:15.515Z,6.83
2018-04-08T15:16:43.532Z,5.57
2018-04-08T15:19:11.488Z,4.30
2018-04-08T15:21:39.423Z,3.67
2018-04-08T15:24:07.422Z,4.57
2018-04-08T15:26:35.343Z,3.43
2018-04-08T15:29:03.299Z,4.00
2018-04-08T15:31:31.258Z,3.90
2018-04-08T15:33:59.275Z,3.27
2018-04-08T15:36:27.188Z,3.80
2018-04-08T15:38:55.109Z,4.00
2018-04-08T15:41:23.083Z,4.00
2018-04-08T15:43:51.042Z,3.80
2018-04-08T15:46:18.991Z,3.77
2018-04-08T15:48:46.948Z,3.20
2018-04-08T15:51:14.935Z,3.60
2018-04-08T15:53:42.916Z,3.70
2018-04-08T15:56:10.859Z,3.60
2018-04-08T15:58:38.783Z,3.00
2018-04-08T16:01:06.753Z,3.73
2018-04-08T16:03:34.686Z,4.50
2018-04-08T16:06:02.638Z,3.10
2018-04-08T16:08:30.558Z,4.03
2018-04-08T16:10:58.503Z,3.30
2018-04-08T16:13:26.472Z,3.00
2018-04-08T16:15:54.425Z,3.30
2018-04-08T16:18:22.350Z,4.23
2018-04-08T16:20:50.318Z,3.27
2018-04-08T16:23:18.253Z,3.17
2018-04-08T16:25:48.428Z,4.07
2018-04-08T16:28:16.407Z,3.43
2018-04-08T16:30:44.369Z,2.70
2018-04-08T16:33:12.542Z,3.80
2018-04-08T16:35:40.538Z,3.00
2018-04-08T16:38:08.484Z,2.90
2018-04-08T16:40:36.435Z,3.43
2018-04-08T16:43:04.385Z,3.60
2018-04-08T16:45:32.347Z,3.10
2018-04-08T16:48:00.343Z,3.40
2018-04-08T16:50:30.355Z,3.50
2018-04-08T16:52:58.278Z,3.60
2018-04-08T16:55:27.335Z,3.80
2018-04-08T16:57:55.317Z,3.70
2018-04-08T17:00:23.327Z,3.60
2018-04-08T17:02:51.287Z,4.37
2018-04-08T17:05:19.262Z,4.00
2018-04-08T17:07:47.207Z,3.70
2018-04-08T17:10:15.159Z,3.50
2018-04-08T17:12:43.129Z,4.10
2018-04-08T17:15:11.111Z,4.23
2018-04-08T17:17:39.120Z,4.13
2018-04-08T17:20:07.112Z,4.67
2018-04-08T17:22:35.077Z,4.07
2018-04-08T17:25:03.063Z,4.30
2018-04-08T17:27:31.033Z,4.00
2018-04-08T17:29:59.006Z,4.27
2018-04-08T17:32:26.936Z,3.73
2018-04-08T17:34:54.958Z,4.10
2018-04-08T17:37:22.923Z,4.10
2018-04-08T17:39:50.866Z,4.40
2018-04-08T17:42:19.696Z,5.00
2018-04-08T17:44:47.670Z,4.13
2018-04-08T17:47:15.632Z,4.60
2018-04-08T17:49:43.595Z,5.37
2018-04-08T17:52:11.575Z,4.27
2018-04-08T17:54:39.538Z,4.43
2018-04-08T17:57:07.501Z,4.00
2018-04-08T17:59:35.491Z,4.00
2018-04-08T18:02:03.455Z,3.90
2018-04-08T18:04:32.781Z,4.87
2018-04-08T18:07:00.724Z,5.43
2018-04-08T18:09:28.707Z,5.30
2018-04-08T18:11:56.774Z,5.43
2018-04-08T18:14:24.749Z,5.27
2018-04-08T18:16:52.687Z,4.80
2018-04-08T18:19:21.248Z,4.70
2018-04-08T18:21:49.599Z,4.00
2018-04-08T18:24:17.583Z,5.33
2018-04-08T18:26:46.546Z,4.23
2018-04-08T18:29:14.527Z,3.67
2018-04-08T18:31:42.546Z,5.40
2018-04-08T18:34:10.514Z,4.80
2018-04-08T18:36:38.484Z,5.43
2018-04-08T18:39:07.479Z,3.97
2018-04-08T18:41:35.403Z,5.60
2018-04-08T18:44:03.375Z,5.20
2018-04-08T18:46:31.351Z,4.40
2018-04-08T18:48:59.320Z,5.07
2018-04-08T18:51:27.383Z,4.40
2018-04-08T18:53:55.265Z,4.07
2018-04-08T18:56:23.546Z,4.43
2018-04-08T18:58:51.639Z,4.20
2018-04-08T19:01:19.689Z,4.77
2018-04-08T19:03:47.705Z,4.90
2018-04-08T19:06:15.729Z,4.87
2018-04-08T19:08:43.754Z,5.30
2018-04-08T19:11:11.695Z,4.90
2018-04-08T19:13:39.768Z,5.30
2018-04-08T19:16:07.862Z,5.13
2018-04-08T19:18:40.001Z,4.30
2018-04-08T19:21:08.251Z,4.20
2018-04-08T19:23:36.308Z,3.73
2018-04-08T19:26:04.328Z,5.37
2018-04-08T19:28:32.308Z,5.07
2018-04-08T19:31:02.211Z,4.23
2018-04-08T19:33:30.193Z,4.70
2018-04-08T19:35:58.268Z,4.83
2018-04-08T19:38:26.326Z,4.50
2018-04-08T19:40:54.532Z,4.67
2018-04-08T19:43:22.591Z,4.60
2018-04-08T19:45:50.886Z,4.10
2018-04-08T19:48:19.168Z,5.00
2018-04-08T19:50:47.562Z,4.73
2018-04-08T19:53:15.647Z,4.20
2018-04-08T19:55:43.703Z,4.10
2018-04-08T19:58:11.716Z,3.83
2018-04-08T20:00:39.663Z,5.53
2018-04-08T20:03:07.653Z,3.80
2018-04-08T20:05:35.706Z,4.90
2018-04-08T20:08:03.808Z,4.67
2018-04-08T20:10:35.444Z,4.20
2018-04-08T20:13:06.022Z,4.87
2018-04-08T20:15:34.194Z,4.90
2018-04-08T20:18:02.219Z,4.80
2018-04-08T20:20:30.223Z,4.77
2018-04-08T20:22:58.262Z,5.47
2018-04-08T20:25:26.236Z,5.03
2018-04-08T20:27:54.275Z,5.20
2018-04-08T20:30:37.191Z,4.70
2018-04-08T20:33:05.187Z,5.17
2018-04-08T20:35:33.235Z,4.60
2018-04-08T20:38:01.181Z,4.70
2018-04-08T20:40:29.169Z,5.00
2018-04-08T20:42:57.165Z,4.33
2018-04-08T20:45:25.141Z,4.77
2018-04-08T20:47:53.186Z,4.13
2018-04-08T20:50:21.171Z,4.70
2018-04-08T20:52:49.184Z,4.37
2018-04-08T20:55:17.171Z,4.27
2018-04-08T20:57:45.166Z,5.17
2018-04-08T21:00:14.289Z,5.33
2018-04-08T21:02:42.269Z,4.40
2018-04-08T21:05:10.306Z,5.07
2018-04-08T21:07:38.258Z,5.67
2018-04-08T21:10:06.223Z,4.97
2018-04-08T21:12:34.219Z,5.17
2018-04-08T21:15:02.471Z,5.27
2018-04-08T21:17:30.459Z,4.87
2018-04-08T21:19:58.431Z,4.60
2018-04-08T21:22:26.459Z,5.30
2018-04-08T21:24:54.405Z,4.73
2018-04-08T21:27:22.387Z,5.40
2018-04-08T21:29:50.375Z,5.30
2018-04-08T21:32:18.453Z,5.83
2018-04-08T21:34:49.650Z,5.00
2018-04-08T21:37:19.306Z,5.17
2018-04-08T21:39:47.311Z,6.00
2018-04-08T21:42:15.266Z,4.80
2018-04-08T21:44:43.367Z,5.60
2018-04-08T21:47:11.325Z,5.03
2018-04-08T21:49:39.316Z,5.60
2018-04-08T21:52:07.333Z,5.87
2018-04-08T21:54:35.335Z,4.73
2018-04-08T21:57:03.933Z,5.43
2018-04-08T21:59:34.308Z,5.67
2018-04-08T22:02:02.535Z,5.20
2018-04-08T22:04:30.510Z,5.57
2018-04-08T22:06:58.503Z,6.30
2018-04-08T22:09:26.472Z,5.50
2018-04-08T22:11:54.436Z,5.40
2018-04-08T22:14:23.066Z,5.47
2018-04-08T22:16:51.036Z,5.90
2018-04-08T22:19:18.970Z,6.10
2018-04-08T22:21:46.922Z,5.90
2018-04-08T22:24:14.872Z,6.10
2018-04-08T22:26:42.838Z,5.40
2018-04-08T22:29:10.826Z,6.80
2018-04-08T22:31:38.791Z,6.67
2018-04-08T22:34:06.763Z,5.50
2018-04-08T22:36:34.775Z,5.30
2018-04-08T22:39:02.779Z,5.67
2018-04-08T22:41:30.763Z,5.27
2018-04-08T22:43:58.723Z,5.53
2018-04-08T22:46:26.642Z,5.70
2018-04-08T22:48:54.571Z,6.47
2018-04-08T22:51:22.522Z,5.30
2018-04-08T22:53:50.475Z,5.87
2018-04-08T22:56:18.491Z,5.73
2018-04-08T22:58:46.447Z,5.83
2018-04-08T23:01:14.399Z,5.37
2018-04-08T23:03:42.351Z,5.20
2018-04-08T23:06:10.313Z,6.13
2018-04-08T23:08:38.247Z,5.70
2018-04-08T23:11:06.221Z,6.17
2018-04-08T23:13:34.234Z,5.93
2018-04-08T23:16:02.523Z,6.50
2018-04-08T23:18:30.495Z,6.07
2018-04-08T23:20:59.550Z,7.03
2018-04-08T23:23:27.530Z,5.50
2018-04-08T23:25:55.488Z,7.10
2018-04-08T23:28:23.502Z,6.10
2018-04-08T23:30:51.468Z,5.73
2018-04-08T23:33:19.411Z,6.03
2018-04-08T23:35:47.432Z,6.13
2018-04-08T23:38:15.406Z,5.00
2018-04-08T23:40:43.386Z,5.97
2018-04-08T23:43:11.377Z,6.03
2018-04-08T23:45:39.340Z,6.87
2018-04-08T23:48:07.297Z,6.20
2018-04-08T23:50:35.262Z,6.40
2018-04-08T23:53:03.223Z,6.90
2018-04-08T23:55:31.183Z,5.97
2018-04-08T23:57:59.163Z,7.30
